createdAt,value
2023-02-26T00:00:45.200Z,31.80
2023-02-26T00:03:54.257Z,31.50
2023-02-26T00:07:07.459Z,31.30
2023-02-26T00:10:17.512Z,31.30
2023-02-26T00:13:30.064Z,31.40
2023-02-26T00:16:41.326Z,31.40
2023-02-26T00:19:53.728Z,31.50
2023-02-26T00:23:07.390Z,31.70
2023-02-26T00:26:15.429Z,32.30
2023-02-26T00:29:27.563Z,31.80
2023-02-26T00:32:42.392Z,31.70
2023-02-26T00:35:52.988Z,31.70
2023-02-26T00:39:08.351Z,31.30
2023-02-26T00:42:16.829Z,31.20
2023-02-26T00:45:27.992Z,31.40
2023-02-26T00:48:43.084Z,31.30
2023-02-26T00:51:53.821Z,31.40
2023-02-26T00:55:03.452Z,31.60
2023-02-26T00:58:13.274Z,31.80
2023-02-26T01:01:27.798Z,31.80
2023-02-26T01:04:37.159Z,31.80
2023-02-26T01:07:51.268Z,31.70
2023-02-26T01:11:08.815Z,31.50
2023-02-26T01:14:19.512Z,31.40
2023-02-26T01:17:32.295Z,31.40
2023-02-26T01:20:42.850Z,31.50
2023-02-26T01:23:54.221Z,31.80
2023-02-26T01:27:05.865Z,31.90
2023-02-26T01:30:24.282Z,31.80
2023-02-26T01:33:35.895Z,31.80
2023-02-26T01:36:47.539Z,31.60
2023-02-26T01:40:00.775Z,31.50
2023-02-26T01:43:14.011Z,31.50
2023-02-26T01:46:20.443Z,31.80
2023-02-26T01:49:36.392Z,31.70
2023-02-26T01:53:21.039Z,31.90
2023-02-26T01:56:33.814Z,31.80
2023-02-26T01:59:47.780Z,31.80
2023-02-26T02:02:59.330Z,31.70
2023-02-26T02:06:15.813Z,31.70
2023-02-26T02:09:29.292Z,31.80
2023-02-26T02:12:41.176Z,32.10
2023-02-26T02:15:52.168Z,32.20
2023-02-26T02:19:08.942Z,32.20
2023-02-26T02:22:57.067Z,32.10
2023-02-26T02:26:46.193Z,32.10
2023-02-26T02:30:21.036Z,32.30
2023-02-26T02:33:33.250Z,32.30
2023-02-26T02:36:45.147Z,32.30
2023-02-26T02:39:56.166Z,32.40
2023-02-26T02:43:04.506Z,32.50
2023-02-26T02:46:15.444Z,32.60
2023-02-26T02:49:29.734Z,32.60
2023-02-26T02:52:44.056Z,32.50
2023-02-26T02:55:54.951Z,32.60
2023-02-26T02:59:08.337Z,32.70
2023-02-26T03:02:17.826Z,32.70
2023-02-26T03:05:28.042Z,32.60
2023-02-26T03:08:40.346Z,32.50
2023-02-26T03:11:50.249Z,32.70
2023-02-26T03:15:00.457Z,32.90
2023-02-26T03:18:15.645Z,32.70
2023-02-26T03:21:30.064Z,32.80
2023-02-26T03:24:41.536Z,32.90
2023-02-26T03:27:55.618Z,32.90
2023-02-26T03:31:09.819Z,32.90
2023-02-26T03:34:21.443Z,32.80
2023-02-26T03:37:33.559Z,32.70
2023-02-26T03:40:45.755Z,32.70
2023-02-26T03:43:58.175Z,32.70
2023-02-26T03:47:09.080Z,32.80
2023-02-26T03:50:22.515Z,32.80
2023-02-26T03:53:30.254Z,32.80
2023-02-26T03:56:43.787Z,32.70
2023-02-26T03:59:54.565Z,33.00
2023-02-26T04:03:06.107Z,33.20
2023-02-26T04:06:17.629Z,33.90
2023-02-26T04:09:26.395Z,33.50
2023-02-26T04:12:39.848Z,33.80
2023-02-26T04:15:47.084Z,33.90
2023-02-26T04:18:56.137Z,33.60
2023-02-26T04:22:06.720Z,33.60
2023-02-26T04:25:18.358Z,33.50
2023-02-26T04:28:28.152Z,33.80
2023-02-26T04:31:39.920Z,34.00
2023-02-26T04:34:48.770Z,34.30
2023-02-26T04:37:59.637Z,34.20
2023-02-26T04:41:12.516Z,34.70
2023-02-26T04:44:23.099Z,35.10
2023-02-26T04:50:46.274Z,35.50
2023-02-26T04:53:55.407Z,34.90
2023-02-26T04:57:06.053Z,35.40
2023-02-26T05:00:20.837Z,35.20
2023-02-26T05:03:31.468Z,35.70
2023-02-26T05:06:39.560Z,35.30
2023-02-26T05:09:47.611Z,34.90
2023-02-26T05:12:58.279Z,35.30
2023-02-26T05:16:07.691Z,35.50
2023-02-26T05:19:18.868Z,35.90
2023-02-26T05:22:28.894Z,35.80
2023-02-26T05:25:42.248Z,36.10
2023-02-26T05:28:54.484Z,36.40
2023-02-26T05:32:04.578Z,36.30
2023-02-26T05:35:16.863Z,36.00
2023-02-26T05:38:26.625Z,35.40
2023-02-26T05:41:37.206Z,35.20
2023-02-26T05:44:47.655Z,35.20
2023-02-26T05:47:56.951Z,35.10
2023-02-26T05:51:07.855Z,34.70
2023-02-26T05:54:17.536Z,34.60
2023-02-26T05:57:29.182Z,34.40
2023-02-26T06:00:38.920Z,34.30
2023-02-26T06:03:49.025Z,34.50
2023-02-26T06:07:02.396Z,34.70
2023-02-26T06:10:11.912Z,34.80
2023-02-26T06:13:23.377Z,34.80
2023-02-26T06:16:35.040Z,34.60
2023-02-26T06:19:48.029Z,34.40
2023-02-26T06:22:58.826Z,34.10
2023-02-26T06:26:10.743Z,33.90
2023-02-26T06:29:22.178Z,33.90
2023-02-26T06:32:34.101Z,33.70
2023-02-26T06:35:43.225Z,33.80
2023-02-26T06:38:54.626Z,33.60
2023-02-26T06:42:04.576Z,33.50
2023-02-26T06:45:14.798Z,33.60
2023-02-26T06:48:23.545Z,33.50
2023-02-26T06:51:31.746Z,33.40
2023-02-26T06:54:39.038Z,33.20
2023-02-26T06:57:51.396Z,33.20
2023-02-26T07:01:03.843Z,33.30
2023-02-26T07:04:13.774Z,33.30
2023-02-26T07:07:21.808Z,34.00
2023-02-26T07:10:33.480Z,33.40
2023-02-26T07:13:43.007Z,33.10
2023-02-26T07:16:54.521Z,33.80
2023-02-26T07:20:08.274Z,33.40
2023-02-26T07:23:16.381Z,33.30
2023-02-26T07:26:25.932Z,33.20
2023-02-26T07:29:36.803Z,33.40
2023-02-26T07:32:44.902Z,33.40
2023-02-26T07:35:54.735Z,33.40
2023-02-26T07:39:05.473Z,33.70
2023-02-26T07:42:15.733Z,33.80
2023-02-26T07:45:28.002Z,33.70
2023-02-26T07:48:42.249Z,33.40
2023-02-26T07:51:52.817Z,33.80
2023-02-26T07:55:03.528Z,34.10
2023-02-26T07:58:15.069Z,34.40
2023-02-26T08:01:29.348Z,34.50
2023-02-26T08:04:43.014Z,34.60
2023-02-26T08:07:56.235Z,34.40
2023-02-26T08:11:06.846Z,34.60
2023-02-26T08:14:19.403Z,34.50
2023-02-26T08:17:31.184Z,34.30
2023-02-26T08:20:38.557Z,34.10
2023-02-26T08:23:52.844Z,34.00
2023-02-26T08:27:07.085Z,34.10
2023-02-26T08:30:20.421Z,34.10
2023-02-26T08:33:31.334Z,34.10
2023-02-26T08:36:43.312Z,33.90
2023-02-26T08:39:54.107Z,33.90
2023-02-26T08:43:07.692Z,34.00
2023-02-26T08:46:16.698Z,34.00
2023-02-26T08:49:29.084Z,33.90
2023-02-26T08:52:39.341Z,33.70
2023-02-26T08:55:51.652Z,33.80
2023-02-26T08:59:03.861Z,34.50
2023-02-26T09:02:16.697Z,33.80
2023-02-26T09:05:27.613Z,33.70
2023-02-26T09:08:37.471Z,33.80
2023-02-26T09:11:48.637Z,33.90
2023-02-26T09:15:00.581Z,33.90
2023-02-26T09:18:15.822Z,33.80
2023-02-26T09:21:27.381Z,33.50
2023-02-26T09:24:37.902Z,33.60
2023-02-26T09:27:49.361Z,33.70
2023-02-26T09:31:01.491Z,33.70
2023-02-26T09:34:11.667Z,33.70
2023-02-26T09:37:22.173Z,33.80
2023-02-26T09:40:38.584Z,33.80
2023-02-26T09:44:00.767Z,33.80
2023-02-26T09:47:11.146Z,33.60
2023-02-26T09:50:22.275Z,33.40
2023-02-26T09:53:32.044Z,33.50
2023-02-26T09:56:44.467Z,33.60
2023-02-26T09:59:57.596Z,33.60
2023-02-26T10:03:13.822Z,33.60
2023-02-26T10:06:27.118Z,33.70
2023-02-26T10:09:43.239Z,33.80
2023-02-26T10:12:54.241Z,33.80
2023-02-26T10:16:03.921Z,33.70
2023-02-26T10:19:19.552Z,33.50
2023-02-26T10:22:32.475Z,33.60
2023-02-26T10:25:46.853Z,33.60
2023-02-26T10:29:03.385Z,33.60
2023-02-26T10:32:21.610Z,33.60
2023-02-26T10:35:32.181Z,33.90
2023-02-26T10:38:42.925Z,33.90
2023-02-26T10:41:54.542Z,33.80
2023-02-26T10:45:10.972Z,33.50
2023-02-26T10:48:47.748Z,33.60
2023-02-26T10:52:00.549Z,33.70
2023-02-26T10:55:32.970Z,33.70
2023-02-26T10:58:45.064Z,33.70
2023-02-26T11:01:59.212Z,33.90
2023-02-26T11:05:11.209Z,33.90
2023-02-26T11:08:20.648Z,33.90
2023-02-26T11:12:00.432Z,33.60
2023-02-26T11:15:16.194Z,33.60
2023-02-26T11:18:30.918Z,33.70
2023-02-26T11:21:43.304Z,33.80
2023-02-26T11:24:54.292Z,33.70
2023-02-26T11:28:08.800Z,33.90
2023-02-26T11:31:20.344Z,33.90
2023-02-26T11:34:30.914Z,34.00
2023-02-26T11:37:44.673Z,33.80
2023-02-26T11:40:54.275Z,33.70
2023-02-26T11:44:07.876Z,33.70
2023-02-26T11:47:19.784Z,33.70
2023-02-26T11:50:30.839Z,33.80
2023-02-26T11:53:44.217Z,33.90
2023-02-26T11:56:55.549Z,33.90
2023-02-26T12:00:08.189Z,34.00
2023-02-26T12:03:20.738Z,34.00
2023-02-26T12:06:29.308Z,33.60
2023-02-26T12:09:37.376Z,33.60
2023-02-26T12:12:53.135Z,33.80
2023-02-26T12:16:04.620Z,33.80
2023-02-26T12:19:15.012Z,33.80
2023-02-26T12:22:45.541Z,33.90
2023-02-26T12:26:21.954Z,34.00
2023-02-26T12:29:43.237Z,34.00
2023-02-26T12:33:15.807Z,33.90
2023-02-26T12:36:47.663Z,33.90
2023-02-26T12:39:48.324Z,34.00
2023-02-26T12:42:59.489Z,34.00
2023-02-26T12:46:14.998Z,34.00
2023-02-26T12:49:59.814Z,34.10
2023-02-26T12:53:38.327Z,34.10
2023-02-26T12:57:06.311Z,34.10
2023-02-26T13:00:27.696Z,34.20
2023-02-26T13:03:52.558Z,34.10
2023-02-26T13:07:21.661Z,33.90
2023-02-26T13:10:35.202Z,33.80
2023-02-26T13:13:52.852Z,33.80
2023-02-26T13:17:06.573Z,33.80
2023-02-26T13:20:22.166Z,34.10
2023-02-26T13:23:34.153Z,34.20
2023-02-26T13:26:45.823Z,34.80
2023-02-26T13:29:59.087Z,35.00
2023-02-26T13:33:12.131Z,34.70
2023-02-26T13:36:23.584Z,34.50
2023-02-26T13:39:45.476Z,33.80
2023-02-26T13:42:58.000Z,33.90
2023-02-26T13:46:16.579Z,33.90
2023-02-26T13:49:29.164Z,34.40
2023-02-26T13:52:39.907Z,35.00
2023-02-26T13:55:52.869Z,35.60
2023-02-26T13:59:06.916Z,35.50
2023-02-26T14:02:52.352Z,35.00
2023-02-26T14:06:14.705Z,34.30
2023-02-26T14:09:51.873Z,33.90
2023-02-26T14:13:12.932Z,34.00
2023-02-26T14:16:27.008Z,34.10
2023-02-26T14:19:36.082Z,34.20
2023-02-26T14:22:50.016Z,34.20
2023-02-26T14:26:03.649Z,34.20
2023-02-26T14:29:20.650Z,34.60
2023-02-26T14:32:35.689Z,35.20
2023-02-26T14:35:45.898Z,35.20
2023-02-26T14:38:53.240Z,34.10
2023-02-26T14:42:05.561Z,34.00
2023-02-26T14:45:36.838Z,34.00
2023-02-26T14:48:47.290Z,34.00
2023-02-26T14:52:04.360Z,33.80
2023-02-26T14:55:39.246Z,33.80
2023-02-26T14:58:56.181Z,34.20
2023-02-26T15:02:14.797Z,34.30
2023-02-26T15:09:06.708Z,34.10
2023-02-26T15:12:42.084Z,33.50
2023-02-26T15:15:55.992Z,33.40
2023-02-26T15:19:17.467Z,33.50
2023-02-26T15:22:44.376Z,33.70
2023-02-26T15:25:54.942Z,34.00
2023-02-26T15:29:09.781Z,34.00
2023-02-26T15:32:30.784Z,33.70
2023-02-26T15:35:38.830Z,34.30
2023-02-26T15:38:51.992Z,34.50
2023-02-26T15:42:03.967Z,34.60
2023-02-26T15:45:18.801Z,33.80
2023-02-26T15:48:29.798Z,33.60
2023-02-26T15:51:40.541Z,33.70
2023-02-26T15:54:52.804Z,33.90
2023-02-26T15:58:03.733Z,34.00
2023-02-26T16:01:18.558Z,34.00
2023-02-26T16:04:31.169Z,34.50
2023-02-26T16:07:42.618Z,34.10
2023-02-26T16:10:52.547Z,34.30
2023-02-26T16:14:03.899Z,34.20
2023-02-26T16:17:17.111Z,34.40
2023-02-26T16:20:23.094Z,34.00
2023-02-26T16:23:37.186Z,33.70
2023-02-26T16:26:49.079Z,34.00
2023-02-26T16:30:01.740Z,34.50
2023-02-26T16:33:16.732Z,34.70
2023-02-26T16:36:30.127Z,34.80
2023-02-26T16:39:42.523Z,34.70
2023-02-26T16:42:56.066Z,34.80
2023-02-26T16:46:07.778Z,35.20
2023-02-26T16:49:19.069Z,36.40
2023-02-26T16:52:27.504Z,36.30
2023-02-26T16:55:38.459Z,36.10
2023-02-26T16:58:49.468Z,34.90
2023-02-26T17:02:00.289Z,34.80
2023-02-26T17:05:12.495Z,34.70
2023-02-26T17:08:24.141Z,34.80
2023-02-26T17:11:37.953Z,34.80
2023-02-26T17:14:47.198Z,34.80
2023-02-26T17:17:58.790Z,34.80
2023-02-26T17:21:09.147Z,34.80
2023-02-26T17:24:21.865Z,34.70
2023-02-26T17:27:30.800Z,34.60
2023-02-26T17:30:41.480Z,34.70
2023-02-26T17:33:53.439Z,34.50
2023-02-26T17:37:05.489Z,34.50
2023-02-26T17:40:24.652Z,34.40
2023-02-26T17:43:34.807Z,34.40
2023-02-26T17:46:43.924Z,34.20
2023-02-26T17:49:52.886Z,34.20
2023-02-26T17:53:03.547Z,34.20
2023-02-26T17:56:15.990Z,34.20
2023-02-26T17:59:25.986Z,34.00
2023-02-26T18:02:38.715Z,34.00
2023-02-26T18:05:49.445Z,33.90
2023-02-26T18:09:02.727Z,33.90
2023-02-26T18:12:10.490Z,33.80
2023-02-26T18:15:18.828Z,33.70
2023-02-26T18:18:32.408Z,33.60
2023-02-26T18:21:44.794Z,33.50
2023-02-26T18:24:54.271Z,33.50
2023-02-26T18:28:04.347Z,33.40
2023-02-26T18:31:15.074Z,34.00
2023-02-26T18:34:24.163Z,33.40
2023-02-26T18:37:36.076Z,33.40
2023-02-26T18:40:46.750Z,33.40
2023-02-26T18:43:58.262Z,33.40
2023-02-26T18:47:09.961Z,33.30
2023-02-26T18:50:20.993Z,33.20
2023-02-26T18:53:30.489Z,33.10
2023-02-26T18:56:42.208Z,33.10
2023-02-26T18:59:53.959Z,33.20
2023-02-26T19:03:03.880Z,33.10
2023-02-26T19:06:14.913Z,33.00
2023-02-26T19:09:23.914Z,33.00
2023-02-26T19:12:37.217Z,33.00
2023-02-26T19:15:49.326Z,32.90
2023-02-26T19:18:59.268Z,32.90
2023-02-26T19:22:10.024Z,32.80
2023-02-26T19:25:23.552Z,32.90
2023-02-26T19:28:31.065Z,32.80
2023-02-26T19:31:39.221Z,32.80
2023-02-26T19:34:49.169Z,32.80
2023-02-26T19:37:59.831Z,32.60
2023-02-26T19:41:10.215Z,32.70
2023-02-26T19:44:20.903Z,32.70
2023-02-26T19:47:31.496Z,32.70
2023-02-26T19:50:41.554Z,33.30
2023-02-26T19:53:49.022Z,32.80
2023-02-26T19:56:58.711Z,32.60
2023-02-26T20:00:14.283Z,32.70
2023-02-26T20:03:25.146Z,32.80
2023-02-26T20:06:36.192Z,33.00
2023-02-26T20:09:47.107Z,32.80
2023-02-26T20:12:58.884Z,32.70
2023-02-26T20:16:09.161Z,32.90
2023-02-26T20:19:19.623Z,32.90
2023-02-26T20:22:28.641Z,32.90
2023-02-26T20:25:37.327Z,32.70
2023-02-26T20:28:49.389Z,32.80
2023-02-26T20:32:01.234Z,33.10
2023-02-26T20:35:15.239Z,33.10
2023-02-26T20:38:25.337Z,33.00
2023-02-26T20:41:37.826Z,33.00
2023-02-26T20:44:46.776Z,33.10
2023-02-26T20:47:57.311Z,33.10
2023-02-26T20:51:08.208Z,33.10
2023-02-26T20:54:19.399Z,33.20
2023-02-26T20:57:31.776Z,33.10
2023-02-26T21:00:44.470Z,32.90
2023-02-26T21:03:56.368Z,32.60
2023-02-26T21:07:17.554Z,32.80
2023-02-26T21:10:29.276Z,33.30
2023-02-26T21:13:38.283Z,33.30
2023-02-26T21:16:49.847Z,33.30
2023-02-26T21:19:59.785Z,33.40
2023-02-26T21:23:13.330Z,33.40
2023-02-26T21:26:23.607Z,33.10
2023-02-26T21:29:34.532Z,32.90
2023-02-26T21:32:42.544Z,32.90
2023-02-26T21:35:53.697Z,33.00
2023-02-26T21:39:01.118Z,33.10
2023-02-26T21:42:12.216Z,33.50
2023-02-26T21:45:24.725Z,33.50
2023-02-26T21:48:34.399Z,33.50
2023-02-26T21:51:46.065Z,33.30
2023-02-26T21:54:57.615Z,33.10
2023-02-26T21:58:07.342Z,33.10
2023-02-26T22:01:20.466Z,33.10
2023-02-26T22:04:28.770Z,33.10
2023-02-26T22:07:39.586Z,33.60
2023-02-26T22:10:52.185Z,33.60
2023-02-26T22:14:03.260Z,33.60
2023-02-26T22:17:14.092Z,33.60
2023-02-26T22:20:26.016Z,33.60
2023-02-26T22:23:39.213Z,33.60
2023-02-26T22:26:50.848Z,33.40
2023-02-26T22:30:03.506Z,33.30
2023-02-26T22:33:12.737Z,33.30
2023-02-26T22:36:20.137Z,33.70
2023-02-26T22:39:30.723Z,33.30
2023-02-26T22:42:40.829Z,34.20
2023-02-26T22:45:52.635Z,33.70
2023-02-26T22:49:03.333Z,34.20
2023-02-26T22:52:12.471Z,33.40
2023-02-26T22:55:24.010Z,33.30
2023-02-26T22:58:35.326Z,33.30
2023-02-26T23:01:47.888Z,33.30
2023-02-26T23:04:59.627Z,33.60
2023-02-26T23:08:08.459Z,33.80
2023-02-26T23:11:20.233Z,33.80
2023-02-26T23:14:33.652Z,33.70
2023-02-26T23:17:43.375Z,33.80
2023-02-26T23:20:54.049Z,33.70
2023-02-26T23:24:05.513Z,33.40
2023-02-26T23:27:16.010Z,33.40
2023-02-26T23:30:29.112Z,33.40
2023-02-26T23:33:39.780Z,33.40
2023-02-26T23:36:49.895Z,33.40
2023-02-26T23:39:59.655Z,33.80
2023-02-26T23:43:10.601Z,33.90
2023-02-26T23:46:22.347Z,34.00
2023-02-26T23:49:32.614Z,33.90
2023-02-26T23:52:45.007Z,33.90
2023-02-26T23:55:55.519Z,33.60
2023-02-26T23:59:05.128Z,33.50
